Time;durP1;ratioP1;P1;durP2;ratioP2;P2;SDS_P1;SDS_P2;PMS_P1;PMS_P2;Temp;Humidity;BMP_temperature;BMP_pressure;BME280_temperature;BME280_humidity;BME280_pressure;Samples;Min_cycle;Max_cycle;Signal;HPM_P1;HPM_P2
2023/04/16 00:03:30;;;;;;;40.00;26.33;;;8.20;99.90;;;;;;7300550;32;20135;-56
2023/04/16 00:07:32;;;;;;;38.10;25.73;;;8.20;99.90;;;;;;7302174;32;20163;-55
2023/04/16 00:11:33;;;;;;;46.28;27.80;;;8.10;99.90;;;;;;7300467;32;20135;-55
2023/04/16 00:15:35;;;;;;;38.97;27.17;;;8.20;99.90;;;;;;7301125;32;20236;-55
2023/04/16 00:19:37;;;;;;;48.85;28.92;;;8.10;99.90;;;;;;7303006;32;20111;-54
2023/04/16 00:23:39;;;;;;;47.53;29.58;;;8.10;99.90;;;;;;7299326;32;20112;-56
2023/04/16 00:27:40;;;;;;;49.17;28.25;;;8.10;99.90;;;;;;7300336;32;20264;-55
2023/04/16 00:31:42;;;;;;;48.83;30.10;;;8.00;99.90;;;;;;7297473;32;20191;-56
2023/04/16 00:35:45;;;;;;;46.22;28.55;;;8.00;99.90;;;;;;7299041;32;20812;-55
2023/04/16 00:39:47;;;;;;;54.35;29.48;;;8.10;99.90;;;;;;7302486;32;20478;-55
2023/04/16 00:43:49;;;;;;;48.70;29.17;;;8.10;99.90;;;;;;7301831;32;20111;-55
2023/04/16 00:47:51;;;;;;;49.25;30.37;;;8.10;99.90;;;;;;7308801;32;20187;-56
2023/04/16 00:51:53;;;;;;;47.70;29.20;;;8.10;99.90;;;;;;7307770;32;20126;-56
2023/04/16 00:55:56;;;;;;;52.38;30.50;;;8.20;99.90;;;;;;7314738;32;20203;-56
2023/04/16 00:59:58;;;;;;;53.30;29.70;;;8.00;99.90;;;;;;7297157;32;20633;-55
2023/04/16 01:03:59;;;;;;;51.95;30.88;;;8.10;99.90;;;;;;7298425;32;20134;-56
2023/04/16 01:08:01;;;;;;;52.15;31.48;;;8.10;99.90;;;;;;7295487;32;20108;-55
2023/04/16 01:12:03;;;;;;;51.17;32.47;;;8.10;99.90;;;;;;7296952;32;20399;-56
2023/04/16 01:16:09;;;;;;;48.42;32.03;;;8.10;99.90;;;;;;7295396;32;20174;-56
2023/04/16 01:20:11;;;;;;;50.45;29.80;;;8.20;99.90;;;;;;7301253;32;20640;-56
2023/04/16 01:24:12;;;;;;;54.05;30.12;;;8.30;99.90;;;;;;7295901;32;20115;-56
2023/04/16 01:28:14;;;;;;;45.20;28.98;;;8.30;99.90;;;;;;7299253;32;20130;-56
2023/04/16 01:32:16;;;;;;;43.13;27.05;;;8.20;99.90;;;;;;7301478;32;20135;-55
2023/04/16 01:36:18;;;;;;;51.90;28.95;;;8.20;99.90;;;;;;7294629;32;20161;-56
2023/04/16 01:40:19;;;;;;;41.88;26.77;;;8.10;99.90;;;;;;7303391;32;20139;-56
2023/04/16 01:44:22;;;;;;;49.03;28.90;;;8.20;99.90;;;;;;7299886;32;20131;-56
2023/04/16 01:48:23;;;;;;;47.30;29.67;;;8.20;99.90;;;;;;7295843;32;20168;-56
2023/04/16 01:52:25;;;;;;;51.80;31.73;;;8.30;99.90;;;;;;7294953;32;20290;-56
2023/04/16 01:56:27;;;;;;;59.33;32.13;;;8.20;99.90;;;;;;7302225;32;20177;-55
2023/04/16 02:00:28;;;;;;;51.90;31.52;;;8.30;99.90;;;;;;7297442;32;20600;-55
2023/04/16 02:04:31;;;;;;;55.80;33.38;;;8.30;99.90;;;;;;7299077;32;20112;-56
2023/04/16 02:08:32;;;;;;;58.45;33.45;;;8.20;99.90;;;;;;7298769;32;20107;-56
2023/04/16 02:12:34;;;;;;;53.65;31.27;;;8.20;99.90;;;;;;7306167;32;20557;-55
2023/04/16 02:16:36;;;;;;;56.58;32.67;;;8.20;99.90;;;;;;7311886;32;20117;-55
2023/04/16 02:20:43;;;;;;;61.85;33.53;;;8.10;99.90;;;;;;7312235;32;20137;-55
2023/04/16 02:24:44;;;;;;;63.40;33.03;;;8.20;99.90;;;;;;7302331;32;20146;-55
2023/04/16 02:28:46;;;;;;;62.50;34.38;;;8.20;99.90;;;;;;7305315;32;20286;-55
2023/04/16 02:32:48;;;;;;;57.78;32.90;;;8.20;99.90;;;;;;7296595;32;20112;-55
2023/04/16 02:36:50;;;;;;;59.00;33.65;;;8.20;99.90;;;;;;7304302;32;20116;-55
2023/04/16 02:40:52;;;;;;;62.78;34.22;;;8.10;99.90;;;;;;7301992;32;20150;-57
2023/04/16 02:44:54;;;;;;;63.35;35.10;;;8.10;99.90;;;;;;7308366;32;20517;-56
2023/04/16 02:48:55;;;;;;;57.72;34.28;;;8.00;99.90;;;;;;7302301;32;20306;-56
2023/04/16 02:52:57;;;;;;;55.15;32.92;;;8.10;99.90;;;;;;7303140;32;20176;-56
2023/04/16 02:56:59;;;;;;;59.65;34.20;;;8.00;99.90;;;;;;7304026;32;20112;-57
2023/04/16 03:01:01;;;;;;;53.87;30.58;;;8.00;99.90;;;;;;7305037;32;20136;-56
2023/04/16 03:05:03;;;;;;;56.78;31.90;;;8.10;99.90;;;;;;7301103;32;20230;-56
2023/04/16 03:09:05;;;;;;;61.92;33.72;;;8.20;99.90;;;;;;7302117;32;20364;-55
2023/04/16 03:13:07;;;;;;;53.50;31.02;;;8.20;99.90;;;;;;7302576;32;20199;-55
2023/04/16 03:17:08;;;;;;;62.47;32.10;;;8.20;99.90;;;;;;7304770;32;20164;-55
2023/04/16 03:21:10;;;;;;;51.47;29.65;;;8.10;99.90;;;;;;7306513;32;23257;-55
2023/04/16 03:25:12;;;;;;;49.45;28.33;;;8.10;99.90;;;;;;7300984;32;20541;-55
2023/04/16 03:29:14;;;;;;;44.15;26.65;;;8.10;99.90;;;;;;7304187;32;20180;-55
2023/04/16 03:33:16;;;;;;;48.10;25.42;;;8.20;99.90;;;;;;7298155;32;20532;-55
2023/04/16 03:37:17;;;;;;;45.55;25.62;;;8.20;99.90;;;;;;7306173;32;20528;-55
2023/04/16 03:41:19;;;;;;;47.13;25.92;;;8.20;99.90;;;;;;7301967;32;20103;-55
2023/04/16 03:45:21;;;;;;;54.53;26.85;;;8.30;99.90;;;;;;7298727;32;20685;-55
2023/04/16 03:49:22;;;;;;;49.28;26.62;;;8.30;99.90;;;;;;7298757;32;20238;-55
2023/04/16 03:53:24;;;;;;;46.63;25.88;;;8.20;99.90;;;;;;7300852;32;20258;-55
2023/04/16 03:57:26;;;;;;;47.95;25.23;;;8.30;99.90;;;;;;7315453;32;20264;-55
2023/04/16 04:01:28;;;;;;;43.53;25.45;;;8.30;99.90;;;;;;7307205;32;20111;-55
2023/04/16 04:05:29;;;;;;;50.63;26.95;;;8.30;99.90;;;;;;7299985;32;20811;-55
2023/04/16 04:09:32;;;;;;;44.60;25.42;;;8.30;99.90;;;;;;7295890;32;20687;-55
2023/04/16 04:13:34;;;;;;;48.83;26.27;;;8.20;99.90;;;;;;7303269;32;20134;-55
2023/04/16 04:17:36;;;;;;;53.80;27.10;;;8.30;99.90;;;;;;7297229;32;20202;-55
2023/04/16 04:21:38;;;;;;;51.33;25.85;;;8.20;99.90;;;;;;7303315;32;20130;-55
2023/04/16 04:25:39;;;;;;;53.38;25.95;;;8.20;99.90;;;;;;7297549;32;20209;-56
2023/04/16 04:29:41;;;;;;;48.13;26.73;;;8.20;99.90;;;;;;7298755;32;20123;-55
2023/04/16 04:33:43;;;;;;;45.78;26.30;;;8.30;99.90;;;;;;7298188;32;20133;-55
2023/04/16 04:37:44;;;;;;;48.58;27.73;;;8.30;99.90;;;;;;7299492;32;20116;-55
2023/04/16 04:41:47;;;;;;;51.45;27.35;;;8.20;99.90;;;;;;7298124;32;20215;-55
2023/04/16 04:45:48;;;;;;;49.45;26.52;;;8.30;99.90;;;;;;7314965;32;20107;-55
2023/04/16 04:49:50;;;;;;;51.17;28.87;;;8.30;99.90;;;;;;7298356;32;20546;-55
2023/04/16 04:53:52;;;;;;;49.05;28.05;;;8.30;99.90;;;;;;7296310;32;20708;-55
2023/04/16 04:57:53;;;;;;;58.08;29.60;;;8.40;99.90;;;;;;7309983;32;20202;-55
2023/04/16 05:01:55;;;;;;;54.20;29.63;;;8.30;99.90;;;;;;7298302;32;20170;-55
2023/04/16 05:05:57;;;;;;;50.45;28.73;;;8.30;99.90;;;;;;7301080;32;20478;-55
2023/04/16 05:09:59;;;;;;;50.60;28.55;;;8.30;99.90;;;;;;7311020;32;20718;-55
2023/04/16 05:14:01;;;;;;;55.83;27.73;;;8.20;99.90;;;;;;7300626;32;20136;-55
2023/04/16 05:18:02;;;;;;;55.15;27.95;;;8.30;99.90;;;;;;7304033;32;20146;-55
2023/04/16 05:22:05;;;;;;;51.22;27.55;;;8.30;99.90;;;;;;7306496;32;20581;-55
2023/04/16 05:26:06;;;;;;;52.38;27.48;;;8.40;99.90;;;;;;7317847;32;20206;-55
2023/04/16 05:30:08;;;;;;;54.22;28.08;;;8.30;99.90;;;;;;7300604;32;20130;-55
2023/04/16 05:34:10;;;;;;;51.72;27.50;;;8.20;99.90;;;;;;7299047;32;20122;-55
2023/04/16 05:38:12;;;;;;;46.28;26.00;;;8.30;99.90;;;;;;7301928;32;20129;-55
2023/04/16 05:42:14;;;;;;;45.42;25.90;;;8.20;99.90;;;;;;7302863;32;20111;-55
2023/04/16 05:46:15;;;;;;;53.17;25.88;;;8.40;99.90;;;;;;7300950;32;20754;-55
2023/04/16 05:50:17;;;;;;;45.03;25.75;;;8.40;99.90;;;;;;7305286;32;20313;-55
2023/04/16 05:54:19;;;;;;;48.67;24.80;;;8.40;99.90;;;;;;7299419;32;20336;-55
2023/04/16 05:58:21;;;;;;;45.12;24.80;;;8.40;99.90;;;;;;7300478;32;20495;-55
2023/04/16 06:02:22;;;;;;;41.83;24.02;;;8.30;99.90;;;;;;7303752;32;20136;-55
2023/04/16 06:06:26;;;;;;;53.47;27.62;;;8.30;99.90;;;;;;7296702;32;20100;-55
2023/04/16 06:10:28;;;;;;;48.35;26.37;;;8.20;99.90;;;;;;7300098;32;20515;-55
2023/04/16 06:14:29;;;;;;;44.50;24.77;;;8.30;99.90;;;;;;7305370;32;20602;-55
2023/04/16 06:18:31;;;;;;;46.10;24.83;;;8.30;99.90;;;;;;7304003;32;20116;-56
2023/04/16 06:22:33;;;;;;;43.03;24.80;;;8.40;99.90;;;;;;7303758;32;20125;-56
2023/04/16 06:26:35;;;;;;;39.50;24.95;;;8.40;99.90;;;;;;7301537;32;20608;-56
2023/04/16 06:30:38;;;;;;;46.30;24.37;;;8.40;99.90;;;;;;7295302;32;20225;-56
2023/04/16 06:34:40;;;;;;;40.90;25.75;;;8.30;99.90;;;;;;7299921;32;20166;-56
2023/04/16 06:38:42;;;;;;;43.33;24.40;;;8.30;99.90;;;;;;7304999;32;20157;-56
2023/04/16 06:42:44;;;;;;;49.83;26.00;;;8.30;99.90;;;;;;7301443;32;20104;-56
2023/04/16 06:46:46;;;;;;;46.37;24.33;;;8.30;99.90;;;;;;7298630;32;20561;-57
2023/04/16 06:50:48;;;;;;;43.17;23.45;;;8.30;99.90;;;;;;7301109;32;20112;-56
2023/04/16 06:54:50;;;;;;;40.72;24.15;;;8.30;99.90;;;;;;7306086;32;20118;-57
2023/04/16 06:58:51;;;;;;;39.20;21.80;;;8.40;99.90;;;;;;7306935;32;20341;-57
2023/04/16 07:02:53;;;;;;;30.52;19.73;;;8.60;99.90;;;;;;7309464;32;20141;-57
2023/04/16 07:06:58;;;;;;;35.58;20.23;;;8.60;99.90;;;;;;7301707;32;20300;-57
2023/04/16 07:11:00;;;;;;;34.03;19.92;;;8.60;99.90;;;;;;7297194;32;20112;-56
2023/04/16 07:15:02;;;;;;;36.25;21.00;;;8.60;99.90;;;;;;7305859;32;20124;-57
2023/04/16 07:19:04;;;;;;;34.17;21.95;;;8.70;99.90;;;;;;7303710;32;20132;-57
2023/04/16 07:23:05;;;;;;;34.78;21.95;;;8.70;99.90;;;;;;7302870;32;20269;-57
2023/04/16 07:27:07;;;;;;;38.75;20.33;;;8.90;99.90;;;;;;7302420;32;20206;-57
2023/04/16 07:31:09;;;;;;;33.95;21.73;;;8.90;99.90;;;;;;7296015;32;20108;-56
2023/04/16 07:35:10;;;;;;;33.20;21.85;;;9.10;99.90;;;;;;7303021;32;20107;-58
2023/04/16 07:39:12;;;;;;;35.28;22.23;;;9.10;99.90;;;;;;7316337;32;20763;-57
2023/04/16 07:43:15;;;;;;;33.33;21.15;;;9.20;99.90;;;;;;7309601;32;20537;-56
2023/04/16 07:47:17;;;;;;;34.08;21.73;;;9.30;99.90;;;;;;7300205;32;20195;-56
2023/04/16 07:51:19;;;;;;;36.00;22.20;;;9.30;99.90;;;;;;7312251;32;20126;-56
2023/04/16 07:55:21;;;;;;;33.75;21.35;;;9.30;99.90;;;;;;7309412;32;20209;-56
2023/04/16 07:59:22;;;;;;;34.97;21.27;;;9.50;99.90;;;;;;7301363;32;20133;-57
2023/04/16 08:03:25;;;;;;;32.17;21.20;;;9.60;99.90;;;;;;7303188;32;20613;-56
2023/04/16 08:07:27;;;;;;;37.47;22.50;;;9.80;99.90;;;;;;7299952;32;20280;-56
2023/04/16 08:11:29;;;;;;;34.60;21.92;;;9.70;99.90;;;;;;7300284;32;20242;-65
2023/04/16 08:15:31;;;;;;;33.80;21.37;;;9.60;99.90;;;;;;7298029;32;20131;-65
2023/04/16 08:19:32;;;;;;;34.40;21.95;;;9.50;99.90;;;;;;7300164;32;20112;-57
2023/04/16 08:23:34;;;;;;;32.80;21.40;;;9.60;99.90;;;;;;7313087;32;20229;-56
2023/04/16 08:27:36;;;;;;;31.50;20.50;;;9.70;99.90;;;;;;7306343;32;20131;-57
2023/04/16 08:31:38;;;;;;;35.65;20.15;;;9.90;99.90;;;;;;7301149;32;20119;-56
2023/04/16 08:35:40;;;;;;;30.83;20.35;;;10.20;99.90;;;;;;7299684;32;20140;-57
2023/04/16 08:39:41;;;;;;;32.88;20.42;;;10.30;99.90;;;;;;7298754;32;20183;-55
2023/04/16 08:43:44;;;;;;;33.53;21.45;;;10.30;99.90;;;;;;7305291;32;20104;-56
2023/04/16 08:47:48;;;;;;;29.52;19.52;;;10.30;99.90;;;;;;7307850;32;20237;-55
2023/04/16 08:51:54;;;;;;;28.60;19.70;;;10.50;99.90;;;;;;7299456;32;20199;-56
2023/04/16 08:56:00;;;;;;;30.15;20.10;;;10.60;99.90;;;;;;7307158;32;20142;-55
2023/04/16 09:00:02;;;;;;;36.45;20.83;;;10.70;99.90;;;;;;7310363;32;20668;-56
2023/04/16 09:04:06;;;;;;;32.70;20.02;;;10.50;99.90;;;;;;7303472;32;20158;-54
2023/04/16 09:08:08;;;;;;;30.55;19.67;;;10.60;99.90;;;;;;7298513;32;20690;-56
2023/04/16 09:12:09;;;;;;;32.88;22.35;;;10.50;99.90;;;;;;7302304;32;20144;-57
2023/04/16 09:16:12;;;;;;;28.50;19.52;;;10.50;99.90;;;;;;7294962;32;20534;-56
2023/04/16 09:20:14;;;;;;;28.83;19.80;;;10.60;99.90;;;;;;7297065;32;20165;-56
2023/04/16 09:24:17;;;;;;;23.55;18.95;;;10.80;99.90;;;;;;7299321;32;20229;-56
2023/04/16 09:28:42;;;;;;;26.17;19.83;;;10.90;99.90;;;;;;7294296;32;20134;-56
2023/04/16 09:32:44;;;;;;;29.70;19.30;;;10.90;99.90;;;;;;7297352;32;20442;-57
2023/04/16 09:36:46;;;;;;;26.62;19.48;;;11.20;99.90;;;;;;7309693;32;20670;-57
2023/04/16 09:41:05;;;;;;;34.30;24.12;;;11.30;99.90;;;;;;7300514;32;20349;-56
2023/04/16 09:45:07;;;;;;;24.85;18.67;;;11.40;99.90;;;;;;7297139;32;20201;-55
2023/04/16 09:49:15;;;;;;;23.67;17.77;;;11.60;99.90;;;;;;7295892;32;20197;-56
2023/04/16 09:53:28;;;;;;;26.52;19.77;;;11.80;99.90;;;;;;7302892;32;20904;-56
2023/04/16 09:57:30;;;;;;;25.50;19.17;;;11.70;99.90;;;;;;7297909;32;20494;-56
2023/04/16 10:01:31;;;;;;;27.50;20.58;;;11.60;99.90;;;;;;7299922;32;20641;-56
2023/04/16 10:05:33;;;;;;;26.77;19.70;;;11.70;99.90;;;;;;7295794;32;22155;-56
2023/04/16 10:09:38;;;;;;;23.92;18.65;;;11.90;99.90;;;;;;7293950;32;20266;-56
2023/04/16 10:13:40;;;;;;;21.75;17.62;;;12.60;99.90;;;;;;7308303;32;20132;-56
2023/04/16 10:17:42;;;;;;;25.50;17.87;;;13.10;99.90;;;;;;7310426;32;20155;-56
2023/04/16 10:21:44;;;;;;;26.20;19.40;;;13.30;99.90;;;;;;7308483;32;20866;-56
2023/04/16 10:25:51;;;;;;;22.37;17.27;;;13.10;99.90;;;;;;7306030;32;20293;-56
2023/04/16 10:29:52;;;;;;;26.37;17.70;;;13.00;99.90;;;;;;7305677;32;20115;-56
2023/04/16 10:33:55;;;;;;;21.27;15.63;;;13.20;99.90;;;;;;7310084;32;20127;-56
2023/04/16 10:38:17;;;;;;;22.13;17.15;;;13.20;99.90;;;;;;7312094;32;20103;-57
2023/04/16 10:42:18;;;;;;;26.08;19.77;;;13.20;99.90;;;;;;7307518;32;20174;-56
2023/04/16 10:46:25;;;;;;;22.27;18.37;;;13.50;99.90;;;;;;7325642;32;20126;-57
2023/04/16 10:50:34;;;;;;;;;;;13.40;99.90;;;;;;7313776;32;20604;-56
2023/04/16 10:54:36;;;;;;;24.23;18.58;;;13.60;99.90;;;;;;7309448;32;20021;-56
2023/04/16 10:58:38;;;;;;;22.98;17.87;;;13.40;99.90;;;;;;7314960;32;20335;-57
2023/04/16 11:02:40;;;;;;;22.50;16.58;;;13.30;99.90;;;;;;7314193;32;20206;-57
2023/04/16 11:07:01;;;;;;;22.50;17.73;;;13.50;99.90;;;;;;7311329;32;20262;-57
2023/04/16 11:11:04;;;;;;;18.87;15.35;;;14.00;99.90;;;;;;7316935;32;20103;-57
2023/04/16 11:15:08;;;;;;;19.17;16.17;;;14.10;99.90;;;;;;7314021;32;20104;-57
2023/04/16 11:19:15;;;;;;;22.80;16.90;;;13.80;99.90;;;;;;7310307;32;20115;-57
2023/04/16 11:23:17;;;;;;;19.65;15.15;;;13.90;99.90;;;;;;7302843;32;20277;-56
2023/04/16 11:27:19;;;;;;;18.58;15.80;;;14.70;99.90;;;;;;7304796;32;20169;-57
2023/04/16 11:31:22;;;;;;;18.52;14.87;;;14.70;99.90;;;;;;7306933;32;20817;-57
2023/04/16 11:35:24;;;;;;;17.55;14.75;;;14.20;99.90;;;;;;7306894;32;20248;-57
2023/04/16 11:39:26;;;;;;;19.08;15.25;;;14.20;99.90;;;;;;7309453;32;20209;-57
2023/04/16 11:43:27;;;;;;;16.23;13.88;;;14.30;99.90;;;;;;7302447;32;20120;-57
2023/04/16 11:47:30;;;;;;;14.90;13.40;;;14.20;99.90;;;;;;7306402;32;20123;-57
2023/04/16 11:51:32;;;;;;;15.38;12.18;;;14.70;99.90;;;;;;7306269;32;20769;-57
2023/04/16 11:55:45;;;;;;;14.32;12.00;;;15.50;99.90;;;;;;7305368;32;20280;-57
2023/04/16 11:59:47;;;;;;;14.23;11.85;;;16.20;99.90;;;;;;7308405;32;20128;-58
2023/04/16 12:04:04;;;;;;;14.13;11.70;;;17.00;99.90;;;;;;7304602;32;20164;-57
2023/04/16 12:08:11;;;;;;;17.05;12.50;;;16.70;99.90;;;;;;7302508;32;20227;-57
2023/04/16 12:12:30;;;;;;;14.82;11.57;;;16.40;99.90;;;;;;7310784;32;20508;-57
2023/04/16 12:16:33;;;;;;;14.10;11.63;;;15.90;99.90;;;;;;7308024;32;20291;-57
2023/04/16 12:20:42;;;;;;;15.82;11.65;;;15.90;99.90;;;;;;7299035;32;20294;-57
2023/04/16 12:24:44;;;;;;;16.60;13.05;;;15.40;99.90;;;;;;7304881;32;20262;-57
2023/04/16 12:28:46;;;;;;;16.48;11.85;;;15.00;99.90;;;;;;7303689;32;20123;-57
2023/04/16 12:32:50;;;;;;;12.37;10.57;;;14.70;99.90;;;;;;7314257;32;20126;-57
2023/04/16 12:37:08;;;;;;;13.57;10.65;;;14.60;99.90;;;;;;7301259;32;20186;-57
2023/04/16 12:41:10;;;;;;;14.70;11.25;;;14.90;99.90;;;;;;7307455;32;20609;-57
2023/04/16 12:45:11;;;;;;;16.90;12.45;;;14.90;99.90;;;;;;7297881;32;20108;-58
2023/04/16 12:49:13;;;;;;;15.65;12.20;;;14.60;99.90;;;;;;7306358;32;20795;-57
2023/04/16 12:53:15;;;;;;;15.27;11.07;;;14.60;99.90;;;;;;7301312;32;20119;-57
2023/04/16 12:57:16;;;;;;;15.32;11.55;;;14.90;99.90;;;;;;7298964;32;20096;-57
2023/04/16 13:01:19;;;;;;;14.10;11.05;;;14.40;99.90;;;;;;7302398;32;20217;-57
2023/04/16 13:05:20;;;;;;;16.62;11.02;;;14.30;99.90;;;;;;7297112;32;20214;-57
2023/04/16 13:09:22;;;;;;;15.50;10.93;;;14.30;99.90;;;;;;7306375;32;20125;-57
2023/04/16 13:13:24;;;;;;;15.30;11.23;;;14.00;99.90;;;;;;7308205;32;20582;-56
2023/04/16 13:17:26;;;;;;;16.35;11.05;;;13.90;99.90;;;;;;7304214;32;20121;-57
2023/04/16 13:21:28;;;;;;;16.23;12.30;;;13.90;99.90;;;;;;7297071;32;20584;-60
2023/04/16 13:25:30;;;;;;;14.18;11.73;;;13.60;99.90;;;;;;7301915;32;20150;-60
2023/04/16 13:29:32;;;;;;;15.45;12.35;;;13.50;99.90;;;;;;7302441;32;20513;-59
2023/04/16 13:33:34;;;;;;;17.23;12.25;;;13.40;99.90;;;;;;7297330;32;20235;-58
2023/04/16 13:37:35;;;;;;;15.52;12.00;;;13.60;99.90;;;;;;7311176;32;20627;-57
2023/04/16 13:41:37;;;;;;;17.48;12.27;;;13.70;99.90;;;;;;7304778;32;20563;-57
2023/04/16 13:45:40;;;;;;;15.43;12.73;;;13.60;99.90;;;;;;7304293;32;20577;-57
2023/04/16 13:49:42;;;;;;;16.80;13.07;;;13.80;99.90;;;;;;7300612;32;20780;-57
2023/04/16 13:53:44;;;;;;;16.42;13.10;;;13.70;99.90;;;;;;7303818;32;20135;-57
2023/04/16 13:57:46;;;;;;;16.17;13.88;;;13.60;99.90;;;;;;7299810;32;20170;-57
2023/04/16 14:01:48;;;;;;;15.98;12.95;;;13.50;99.90;;;;;;7300990;32;20388;-57
2023/04/16 14:05:50;;;;;;;16.83;12.70;;;13.60;99.90;;;;;;7296534;32;20278;-56
2023/04/16 14:09:53;;;;;;;17.75;14.05;;;13.60;99.90;;;;;;7305833;32;20152;-56
2023/04/16 14:13:54;;;;;;;17.42;13.18;;;13.70;99.90;;;;;;7300951;32;20214;-57
2023/04/16 14:17:56;;;;;;;17.58;14.15;;;13.80;99.90;;;;;;7298455;32;20750;-58
2023/04/16 14:21:58;;;;;;;17.73;14.00;;;13.90;99.90;;;;;;7302905;32;20146;-57
2023/04/16 14:26:00;;;;;;;23.85;15.00;;;13.90;99.90;;;;;;7305431;32;20141;-57
2023/04/16 14:30:02;;;;;;;19.33;14.00;;;13.90;99.90;;;;;;7304630;32;20100;-58
2023/04/16 14:34:03;;;;;;;15.75;12.90;;;13.90;99.90;;;;;;7315321;32;20145;-57
2023/04/16 14:38:05;;;;;;;16.42;12.55;;;13.90;99.90;;;;;;7314460;32;20945;-57
2023/04/16 14:42:07;;;;;;;19.48;13.43;;;13.90;99.90;;;;;;7321734;32;20226;-57
2023/04/16 14:46:09;;;;;;;14.93;12.55;;;13.80;99.90;;;;;;7320533;32;20213;-57
2023/04/16 14:50:12;;;;;;;13.98;11.75;;;14.10;99.90;;;;;;7315639;32;20099;-58
2023/04/16 14:54:13;;;;;;;13.02;11.70;;;14.30;99.90;;;;;;7320309;32;20448;-58
2023/04/16 14:58:15;;;;;;;14.32;11.63;;;14.20;99.90;;;;;;7305024;32;20123;-58
2023/04/16 15:02:17;;;;;;;15.20;11.07;;;14.00;99.90;;;;;;7308626;32;20780;-57
2023/04/16 15:06:19;;;;;;;15.45;11.52;;;14.30;99.90;;;;;;7314782;32;22056;-58
2023/04/16 15:10:21;;;;;;;14.82;11.43;;;14.20;99.90;;;;;;7319470;32;20144;-58
2023/04/16 15:14:22;;;;;;;13.15;10.05;;;14.30;99.90;;;;;;7321096;32;20104;-58
2023/04/16 15:18:24;;;;;;;14.55;9.98;;;14.60;99.90;;;;;;7310550;32;20166;-58
2023/04/16 15:22:26;;;;;;;16.05;10.80;;;14.50;99.90;;;;;;7308821;32;20115;-58
2023/04/16 15:26:29;;;;;;;13.27;9.90;;;14.70;99.90;;;;;;7315897;32;20215;-58
2023/04/16 15:30:30;;;;;;;14.80;10.07;;;14.60;99.90;;;;;;7306460;32;20104;-58
2023/04/16 15:34:32;;;;;;;12.75;10.02;;;14.40;99.90;;;;;;7312488;32;20146;-58
2023/04/16 15:38:34;;;;;;;13.68;9.60;;;14.50;99.90;;;;;;7302812;32;20266;-58
2023/04/16 15:42:36;;;;;;;12.95;9.35;;;14.50;99.90;;;;;;7304796;32;20096;-59
2023/04/16 15:46:37;;;;;;;13.02;9.90;;;14.40;99.90;;;;;;7308305;32;20131;-58
2023/04/16 15:50:39;;;;;;;14.57;9.52;;;14.40;99.90;;;;;;7302124;32;20151;-58
2023/04/16 15:54:42;;;;;;;10.23;8.90;;;14.20;99.90;;;;;;7309193;32;20103;-58
2023/04/16 15:58:43;;;;;;;10.07;8.88;;;14.10;99.90;;;;;;7304023;32;20103;-57
2023/04/16 16:02:45;;;;;;;12.63;8.90;;;14.10;99.90;;;;;;7305686;32;20104;-58
2023/04/16 16:06:51;;;;;;;12.00;8.55;;;14.10;99.90;;;;;;7307527;32;20096;-58
2023/04/16 16:10:53;;;;;;;10.93;8.52;;;13.90;99.90;;;;;;7312197;32;20103;-57
2023/04/16 16:14:55;;;;;;;11.65;8.55;;;14.00;99.90;;;;;;7313926;32;20322;-58
2023/04/16 16:18:57;;;;;;;11.40;9.25;;;14.10;99.90;;;;;;7302462;32;20605;-58
2023/04/16 16:22:59;;;;;;;12.32;8.57;;;14.00;99.90;;;;;;7310063;32;20368;-58
2023/04/16 16:27:01;;;;;;;12.05;7.70;;;13.90;99.90;;;;;;7308682;32;20104;-58
2023/04/16 16:31:04;;;;;;;13.00;8.60;;;13.80;99.90;;;;;;7301728;32;20175;-58
2023/04/16 16:35:07;;;;;;;11.77;8.07;;;13.80;99.90;;;;;;7298129;32;20601;-58
2023/04/16 16:39:09;;;;;;;20.85;14.10;;;13.60;99.90;;;;;;7306738;32;20127;-58
2023/04/16 16:43:11;;;;;;;27.35;15.35;;;13.60;99.90;;;;;;7300026;32;20120;-57
2023/04/16 16:47:13;;;;;;;25.83;14.35;;;13.30;99.90;;;;;;7310239;32;20112;-58
2023/04/16 16:51:17;;;;;;;22.62;14.77;;;13.00;99.90;;;;;;7295592;32;20232;-58
2023/04/16 16:55:19;;;;;;;26.83;14.73;;;12.90;99.90;;;;;;7299705;32;20195;-57
2023/04/16 16:59:21;;;;;;;22.73;13.93;;;12.70;99.90;;;;;;7302365;32;20866;-58
2023/04/16 17:03:23;;;;;;;28.85;16.25;;;12.50;99.90;;;;;;7309175;32;20152;-58
2023/04/16 17:07:25;;;;;;;24.70;15.35;;;12.30;99.90;;;;;;7301939;32;20295;-58
2023/04/16 17:11:28;;;;;;;26.37;15.48;;;12.30;99.90;;;;;;7301841;32;20174;-58
2023/04/16 17:15:29;;;;;;;26.02;16.33;;;12.30;99.90;;;;;;7296575;32;20211;-58
2023/04/16 17:19:31;;;;;;;26.75;17.62;;;12.20;99.90;;;;;;7307686;32;20131;-58
2023/04/16 17:23:33;;;;;;;29.60;17.77;;;12.10;99.90;;;;;;7303540;32;20169;-58
2023/04/16 17:27:35;;;;;;;28.50;18.10;;;12.20;99.90;;;;;;7302518;32;20131;-57
2023/04/16 17:31:36;;;;;;;31.42;18.65;;;12.00;99.90;;;;;;7301338;32;20160;-58
2023/04/16 17:35:39;;;;;;;34.55;19.12;;;11.90;99.90;;;;;;7292652;32;20123;-58
2023/04/16 17:39:41;;;;;;;29.60;17.85;;;12.00;99.90;;;;;;7302588;32;20773;-58
2023/04/16 17:43:45;;;;;;;30.95;19.00;;;11.90;99.90;;;;;;7302811;32;21243;-59
2023/04/16 17:47:47;;;;;;;27.60;17.55;;;11.90;99.90;;;;;;7297466;32;20596;-58
2023/04/16 17:51:48;;;;;;;36.63;19.42;;;11.90;99.90;;;;;;7305240;32;20210;-58
2023/04/16 17:55:51;;;;;;;32.47;20.20;;;11.80;99.90;;;;;;7300304;32;20532;-58
2023/04/16 17:59:56;;;;;;;34.40;18.98;;;11.80;99.90;;;;;;7302583;32;20163;-58
2023/04/16 18:03:57;;;;;;;29.23;19.20;;;11.70;99.90;;;;;;7295936;32;20096;-58
2023/04/16 18:07:59;;;;;;;34.05;18.95;;;11.60;99.90;;;;;;7295846;32;20291;-59
2023/04/16 18:12:01;;;;;;;34.45;20.20;;;11.60;99.90;;;;;;7304273;32;20179;-58
2023/04/16 18:16:03;;;;;;;34.70;21.00;;;11.60;99.90;;;;;;7299418;32;20125;-58
2023/04/16 18:20:07;;;;;;;35.08;21.60;;;11.40;99.90;;;;;;7298348;32;20273;-57
2023/04/16 18:24:09;;;;;;;31.75;20.15;;;11.30;99.90;;;;;;7304440;32;20918;-58
2023/04/16 18:28:12;;;;;;;34.45;19.12;;;11.40;99.90;;;;;;7305459;32;20095;-58
2023/04/16 18:32:15;;;;;;;33.58;22.62;;;11.40;99.90;;;;;;7296481;32;20091;-58
2023/04/16 18:36:17;;;;;;;37.58;22.15;;;11.20;99.90;;;;;;7306052;32;20119;-57
2023/04/16 18:40:18;;;;;;;35.75;21.35;;;11.30;99.90;;;;;;7300139;32;20422;-57
2023/04/16 18:44:20;;;;;;;33.10;20.70;;;11.30;99.90;;;;;;7294750;32;20538;-57
2023/04/16 18:48:22;;;;;;;34.67;20.85;;;11.30;99.90;;;;;;7295072;32;20123;-56
2023/04/16 18:52:23;;;;;;;36.58;21.67;;;11.20;99.90;;;;;;7302124;32;22131;-56
2023/04/16 18:56:28;;;;;;;33.10;20.10;;;11.10;99.90;;;;;;7303460;32;20195;-55
2023/04/16 19:00:30;;;;;;;29.35;18.65;;;11.20;99.90;;;;;;7302273;32;20495;-59
2023/04/16 19:04:32;;;;;;;34.80;19.83;;;11.10;99.90;;;;;;7308539;32;20264;-59
2023/04/16 19:08:34;;;;;;;33.40;20.25;;;11.10;99.90;;;;;;7300355;32;20217;-56
2023/04/16 19:12:36;;;;;;;28.48;19.02;;;11.00;99.90;;;;;;7297974;32;20153;-55
2023/04/16 19:16:37;;;;;;;37.90;19.98;;;10.90;99.90;;;;;;7300600;32;20194;-55
2023/04/16 19:20:39;;;;;;;37.13;19.95;;;10.80;99.90;;;;;;7293295;32;20658;-55
2023/04/16 19:24:41;;;;;;;38.15;19.45;;;10.80;99.90;;;;;;7293609;32;20910;-55
2023/04/16 19:28:44;;;;;;;32.83;19.10;;;10.80;99.90;;;;;;7294824;32;20505;-55
2023/04/16 19:32:46;;;;;;;31.12;18.60;;;10.90;99.90;;;;;;7293743;32;20219;-55
2023/04/16 19:36:47;;;;;;;29.90;18.23;;;10.90;99.90;;;;;;7295941;32;20546;-55
2023/04/16 19:40:49;;;;;;;29.15;18.15;;;10.90;99.90;;;;;;7300129;32;20116;-55
2023/04/16 19:44:51;;;;;;;27.87;18.08;;;10.90;99.90;;;;;;7298500;32;20115;-55
2023/04/16 19:48:53;;;;;;;27.52;16.12;;;10.80;99.90;;;;;;7293457;32;20246;-55
2023/04/16 19:52:54;;;;;;;27.87;16.10;;;10.90;99.90;;;;;;7290982;32;20112;-55
2023/04/16 19:56:56;;;;;;;34.45;17.65;;;10.80;99.90;;;;;;7293124;32;20147;-55
2023/04/16 20:00:58;;;;;;;24.80;16.27;;;10.70;99.90;;;;;;7296318;32;20581;-55
2023/04/16 20:05:00;;;;;;;27.42;16.98;;;10.70;99.90;;;;;;7297188;32;20277;-56
2023/04/16 20:09:03;;;;;;;28.62;15.95;;;10.80;99.90;;;;;;7297456;32;20126;-56
2023/04/16 20:13:08;;;;;;;25.30;16.50;;;10.80;99.90;;;;;;7294813;32;20096;-56
2023/04/16 20:17:10;;;;;;;33.60;17.20;;;10.70;99.90;;;;;;7296765;32;20203;-56
2023/04/16 20:21:12;;;;;;;25.62;15.88;;;10.80;99.90;;;;;;7301971;32;20123;-55
2023/04/16 20:25:17;;;;;;;31.55;16.67;;;10.80;99.90;;;;;;7299764;32;20246;-55
2023/04/16 20:29:19;;;;;;;28.52;17.60;;;10.70;99.90;;;;;;7304502;32;20124;-55
2023/04/16 20:33:21;;;;;;;26.98;16.83;;;10.60;99.90;;;;;;7298412;32;20560;-56
2023/04/16 20:37:22;;;;;;;29.30;16.02;;;10.70;99.90;;;;;;7297042;32;20642;-55